Time;durP1;ratioP1;P1;durP2;ratioP2;P2;SDS_P1;SDS_P2;PMS_P1;PMS_P2;Temp;Humidity;BMP_temperature;BMP_pressure;BME280_temperature;BME280_humidity;BME280_pressure;Samples;Min_cycle;Max_cycle;Signal;HPM_P1;HPM_P2
2021/04/03 00:02:12;;;;;;;13.93;5.20;;;;;;;6.32;65.86;100517.53;5058602;28;20025;-78
2021/04/03 00:04:38;;;;;;;12.95;5.50;;;;;;;6.31;65.07;100523.69;5058512;28;20072;-78
2021/04/03 00:07:04;;;;;;;12.20;6.18;;;;;;;6.19;65.56;100515.16;5056004;28;20086;-77
2021/04/03 00:09:29;;;;;;;13.82;4.72;;;;;;;6.24;65.00;100518.53;5071146;28;20063;-77
2021/04/03 00:11:54;;;;;;;11.52;5.53;;;;;;;6.31;65.19;100516.69;5072570;28;20048;-78
2021/04/03 00:14:20;;;;;;;12.82;4.50;;;;;;;6.32;64.44;100509.69;5053577;28;20052;-77
2021/04/03 00:16:46;;;;;;;14.35;5.90;;;;;;;6.26;64.55;100510.66;5052534;28;20377;-76
2021/04/03 00:19:11;;;;;;;11.50;5.85;;;;;;;6.19;64.70;100516.91;5068192;28;20472;-75
2021/04/03 00:21:36;;;;;;;10.65;5.53;;;;;;;6.16;64.44;100504.75;5054409;28;20401;-78
2021/04/03 00:24:02;;;;;;;13.23;5.88;;;;;;;6.12;64.33;100500.47;5054614;28;20044;-75
2021/04/03 00:26:27;;;;;;;15.68;5.55;;;;;;;6.07;64.41;100497.06;5054825;28;20087;-78
2021/04/03 00:28:53;;;;;;;11.63;5.68;;;;;;;6.11;64.32;100495.28;5056619;28;20036;-78
2021/04/03 00:31:20;;;;;;;10.43;5.13;;;;;;;6.11;64.47;100503.13;5058148;28;20492;-77
2021/04/03 00:33:45;;;;;;;14.55;5.88;;;;;;;6.09;64.34;100504.91;5060081;28;20045;-78
2021/04/03 00:36:11;;;;;;;12.40;5.28;;;;;;;5.98;64.57;100498.13;5088578;28;20222;-78
2021/04/03 00:38:37;;;;;;;14.27;6.70;;;;;;;5.96;64.70;100496.44;5083212;28;20025;-77
2021/04/03 00:41:02;;;;;;;19.02;6.68;;;;;;;5.93;64.34;100497.31;5058940;28;20036;-76
2021/04/03 00:43:27;;;;;;;12.00;6.03;;;;;;;5.89;64.51;100487.78;5057614;28;20040;-76
2021/04/03 00:45:53;;;;;;;10.40;4.88;;;;;;;5.88;64.57;100486.06;5058921;28;20033;-75
2021/04/03 00:48:19;;;;;;;16.08;6.93;;;;;;;5.88;64.82;100486.06;5056213;28;20037;-75
2021/04/03 00:50:47;;;;;;;24.60;6.72;;;;;;;5.83;64.56;100480.03;5057336;28;20163;-75
2021/04/03 00:53:15;;;;;;;14.73;5.38;;;;;;;5.80;64.81;100485.34;5057691;28;20037;-76
2021/04/03 00:55:41;;;;;;;13.63;5.93;;;;;;;5.76;65.09;100484.53;5058452;28;20043;-75
2021/04/03 00:58:06;;;;;;;14.52;6.60;;;;;;;5.67;65.73;100489.94;5054901;28;20472;-77
2021/04/03 01:00:32;;;;;;;16.95;6.47;;;;;;;5.57;66.00;100489.22;5036377;28;20047;-77
2021/04/03 01:02:58;;;;;;;25.83;7.95;;;;;;;5.58;66.16;100484.84;5054304;28;20029;-76
2021/04/03 01:05:25;;;;;;;16.42;6.32;;;;;;;5.59;66.73;100481.38;5052281;28;20048;-77
2021/04/03 01:07:51;;;;;;;18.05;6.28;;;;;;;5.69;66.52;100485.53;5052645;28;20120;-77
2021/04/03 01:10:25;;;;;;;14.07;6.78;;;;;;;5.70;66.19;100482.03;5053317;28;20455;-77
2021/04/03 01:12:55;;;;;;;18.15;7.13;;;;;;;5.69;66.91;100479.44;5047100;28;20049;-77
2021/04/03 01:15:26;;;;;;;18.13;7.68;;;;;;;5.74;66.32;100475.84;5053382;28;20058;-78
2021/04/03 01:18:00;;;;;;;16.70;7.30;;;;;;;5.79;66.82;100468.78;5040511;28;20033;-76
2021/04/03 01:20:33;;;;;;;15.85;6.50;;;;;;;5.88;66.49;100472.09;5051427;28;20499;-77
2021/04/03 01:23:07;;;;;;;15.40;8.43;;;;;;;5.89;67.12;100464.25;5051954;28;20060;-77
2021/04/03 01:25:57;;;;;;;26.27;7.82;;;;;;;5.81;67.75;100468.75;5052161;28;20041;-78
2021/04/03 01:28:55;;;;;;;14.48;6.45;;;;;;;5.80;68.05;100465.25;5050437;28;20072;-78
2021/04/03 01:31:20;;;;;;;13.57;7.32;;;;;;;5.74;68.91;100467.16;5045594;28;20040;-75
2021/04/03 01:33:47;;;;;;;17.88;8.32;;;;;;;5.80;70.16;100465.25;5039480;28;20565;-78
2021/04/03 01:36:21;;;;;;;13.63;6.85;;;;;;;5.85;68.98;100466.94;5052003;28;20037;-78
2021/04/03 01:39:07;;;;;;;18.35;8.07;;;;;;;5.80;68.79;100467.88;5051415;28;20089;-78
2021/04/03 01:41:34;;;;;;;19.55;8.30;;;;;;;5.75;69.75;100471.47;5066560;28;20079;-78
2021/04/03 01:44:02;;;;;;;15.55;7.55;;;;;;;5.77;68.73;100469.69;5051578;28;20063;-77
2021/04/03 01:46:32;;;;;;;15.38;6.65;;;;;;;5.77;69.04;100473.19;5051750;28;20037;-78
2021/04/03 01:49:01;;;;;;;33.03;8.80;;;;;;;5.75;68.93;100474.94;5053898;28;20056;-78
2021/04/03 01:51:28;;;;;;;18.05;7.40;;;;;;;5.77;68.63;100470.56;5052433;28;20074;-78
2021/04/03 01:53:55;;;;;;;20.73;7.93;;;;;;;5.78;68.41;100476.66;5051514;28;20063;-78
2021/04/03 01:56:22;;;;;;;19.17;7.30;;;;;;;5.77;68.14;100472.31;5051761;28;20373;-76
2021/04/03 01:58:49;;;;;;;22.77;7.10;;;;;;;5.73;67.79;100470.63;5067305;28;20484;-77
2021/04/03 02:01:16;;;;;;;23.02;8.02;;;;;;;5.79;67.98;100465.31;5051288;28;20045;-77
2021/04/03 02:03:44;;;;;;;24.50;7.05;;;;;;;5.86;67.45;100463.41;5051335;28;20040;-76
2021/04/03 02:06:10;;;;;;;21.98;7.43;;;;;;;5.81;66.64;100468.75;5051103;28;20166;-76
2021/04/03 02:08:35;;;;;;;18.02;8.02;;;;;;;5.81;67.06;100474.00;5050759;28;20495;-76
2021/04/03 02:11:03;;;;;;;23.30;8.18;;;;;;;5.76;66.86;100468.84;5050907;28;20029;-77
2021/04/03 02:13:33;;;;;;;24.33;7.10;;;;;;;5.75;66.78;100472.34;5050035;28;20045;-76
2021/04/03 02:16:00;;;;;;;13.55;6.82;;;;;;;5.75;66.25;100463.63;5049424;28;20032;-75
2021/04/03 02:18:28;;;;;;;25.85;9.77;;;;;;;5.70;66.83;100468.09;5051097;28;20451;-78
2021/04/03 02:20:55;;;;;;;22.50;6.55;;;;;;;5.66;66.75;100466.41;5050957;28;20025;-76
2021/04/03 02:23:21;;;;;;;22.85;7.50;;;;;;;5.70;66.85;100458.47;5051031;28;20025;-77
2021/04/03 02:25:46;;;;;;;21.75;7.63;;;;;;;5.70;66.92;100461.09;5050934;28;20496;-75
2021/04/03 02:28:11;;;;;;;23.48;8.52;;;;;;;5.62;67.41;100459.53;5049365;28;20488;-77
2021/04/03 02:30:37;;;;;;;20.67;8.30;;;;;;;5.67;67.17;100468.16;5050502;28;20045;-77
2021/04/03 02:33:02;;;;;;;18.20;7.93;;;;;;;5.68;67.27;100470.72;5050149;28;20802;-78
2021/04/03 02:35:29;;;;;;;11.98;6.55;;;;;;;5.70;67.06;100471.56;5048989;28;20496;-78
2021/04/03 02:38:01;;;;;;;24.15;7.97;;;;;;;5.75;66.98;100469.72;5050032;28;20115;-78
2021/04/03 02:40:32;;;;;;;17.92;7.95;;;;;;;5.74;67.47;100475.00;5051284;28;20037;-76
2021/04/03 02:43:08;;;;;;;15.07;6.30;;;;;;;5.75;68.21;100474.09;5050041;28;20044;-77
2021/04/03 02:45:38;;;;;;;11.98;6.40;;;;;;;5.75;68.60;100474.94;5050322;28;20447;-78
2021/04/03 02:48:09;;;;;;;11.45;5.63;;;;;;;5.67;67.18;100483.84;5049853;28;20033;-79
2021/04/03 02:50:39;;;;;;;32.92;8.77;;;;;;;5.55;67.63;100484.91;5049629;28;20536;-76
2021/04/03 02:53:08;;;;;;;25.83;5.65;;;;;;;5.44;67.28;100481.59;5053299;28;20501;-77
2021/04/03 02:55:36;;;;;;;22.42;8.20;;;;;;;5.41;67.44;100490.38;5055549;28;20036;-77
2021/04/03 02:58:04;;;;;;;22.73;5.53;;;;;;;5.43;67.33;100490.34;5054714;28;20064;-77
2021/04/03 03:00:30;;;;;;;20.33;6.25;;;;;;;5.38;66.81;100499.13;5051199;28;20029;-78
2021/04/03 03:02:57;;;;;;;22.30;5.80;;;;;;;5.35;66.24;100495.72;5050750;28;20083;-77
2021/04/03 03:05:23;;;;;;;13.20;4.85;;;;;;;5.40;66.60;100495.66;5050616;28;20041;-76
2021/04/03 03:07:50;;;;;;;14.98;5.50;;;;;;;5.39;66.22;100484.34;5049652;28;20070;-76
2021/04/03 03:10:18;;;;;;;15.30;6.20;;;;;;;5.42;65.47;100491.25;5049909;28;20037;-77
2021/04/03 03:12:48;;;;;;;15.90;5.25;;;;;;;5.30;65.25;100485.34;5048834;28;20376;-77
2021/04/03 03:15:16;;;;;;;21.20;5.95;;;;;;;5.26;65.30;100490.63;5066395;28;20120;-78
2021/04/03 03:17:47;;;;;;;20.08;6.93;;;;;;;5.17;64.81;100494.28;5053539;28;20132;-77
2021/04/03 03:20:15;;;;;;;23.48;5.80;;;;;;;5.21;65.79;100495.94;5053136;28;20041;-76
2021/04/03 03:22:44;;;;;;;22.67;6.97;;;;;;;5.20;65.90;100485.50;5053982;28;20114;-76
2021/04/03 03:25:10;;;;;;;19.63;5.20;;;;;;;5.20;65.85;100486.38;5043469;28;20428;-76
2021/04/03 03:27:39;;;;;;;15.93;6.72;;;;;;;5.25;65.62;100481.06;5039394;28;20034;-76
2021/04/03 03:30:06;;;;;;;17.27;5.68;;;;;;;5.22;65.78;100479.38;5045421;28;20048;-76
2021/04/03 03:32:31;;;;;;;17.63;6.07;;;;;;;5.21;65.56;100484.63;5050318;28;20037;-75
2021/04/03 03:34:57;;;;;;;13.63;5.95;;;;;;;5.26;65.51;100483.66;5050958;28;20089;-78
2021/04/03 03:37:27;;;;;;;18.20;5.03;;;;;;;5.36;65.11;100487.81;5049264;28;20061;-77
2021/04/03 03:39:53;;;;;;;16.25;5.90;;;;;;;5.41;64.76;100492.13;5034760;28;20033;-77
2021/04/03 03:42:20;;;;;;;14.25;5.03;;;;;;;5.31;63.66;100491.41;5035974;28;20044;-77
2021/04/03 03:44:46;;;;;;;16.98;5.13;;;;;;;5.26;63.24;100486.25;5034227;28;20029;-78
2021/04/03 03:47:11;;;;;;;24.83;7.65;;;;;;;5.28;63.53;100496.69;5030480;28;20513;-77
2021/04/03 03:49:37;;;;;;;14.48;4.43;;;;;;;5.38;63.73;100499.13;5028200;28;20152;-77
2021/04/03 03:52:03;;;;;;;13.88;4.75;;;;;;;5.33;60.68;100500.09;5028845;28;20834;-78
2021/04/03 03:54:29;;;;;;;13.40;4.28;;;;;;;5.32;60.07;100498.38;5030630;28;20515;-77
2021/04/03 03:56:54;;;;;;;19.48;4.90;;;;;;;5.36;59.52;100495.66;5032355;28;20026;-78
2021/04/03 03:59:19;;;;;;;17.90;5.22;;;;;;;5.39;56.51;100494.78;5033742;28;20029;-78
2021/04/03 04:01:45;;;;;;;8.40;4.35;;;;;;;5.36;57.68;100498.28;5033013;28;20050;-78
2021/04/03 04:04:10;;;;;;;13.45;4.03;;;;;;;5.33;57.23;100500.09;5037391;28;20037;-78
2021/04/03 04:06:35;;;;;;;14.13;5.10;;;;;;;5.39;57.78;100494.78;5034359;28;20037;-78
2021/04/03 04:09:05;;;;;;;15.13;5.10;;;;;;;5.44;57.04;100499.91;5034564;28;20401;-77
2021/04/03 04:11:32;;;;;;;11.52;3.70;;;;;;;5.41;57.81;100498.22;5041910;28;20158;-77
2021/04/03 04:13:57;;;;;;;15.85;5.32;;;;;;;5.43;58.02;100498.19;5042391;28;20029;-78
2021/04/03 04:16:22;;;;;;;11.88;3.92;;;;;;;5.46;58.46;100492.91;5052421;28;20518;-77
2021/04/03 04:18:48;;;;;;;11.82;4.00;;;;;;;5.45;59.13;100488.59;5055007;28;20037;-78
2021/04/03 04:21:13;;;;;;;19.27;6.47;;;;;;;5.52;59.64;100495.44;5055458;28;20037;-78
2021/04/03 04:23:39;;;;;;;14.55;5.05;;;;;;;5.41;59.76;100502.59;5056026;28;20420;-78
2021/04/03 04:26:04;;;;;;;18.63;5.38;;;;;;;5.32;59.93;100501.88;5054673;28;20488;-78
2021/04/03 04:28:29;;;;;;;18.83;5.93;;;;;;;5.29;60.25;100507.16;5056299;28;20496;-77
2021/04/03 04:30:55;;;;;;;12.50;4.90;;;;;;;5.34;60.08;100513.16;5071930;28;20040;-77
2021/04/03 04:33:20;;;;;;;14.80;5.53;;;;;;;5.37;58.72;100517.47;5058246;28;20087;-78
2021/04/03 04:35:45;;;;;;;11.32;3.42;;;;;;;5.34;55.84;100510.53;5057380;28;20056;-78
2021/04/03 04:38:11;;;;;;;17.27;5.07;;;;;;;5.37;56.67;100509.63;5063741;28;20388;-77
2021/04/03 04:40:36;;;;;;;15.18;3.97;;;;;;;5.30;57.10;100516.69;5058438;28;20037;-77
2021/04/03 04:43:02;;;;;;;13.85;4.65;;;;;;;5.41;57.25;100508.69;5057821;28;20056;-76
2021/04/03 04:45:27;;;;;;;11.90;4.43;;;;;;;5.42;57.57;100522.63;5054691;28;20488;-75
2021/04/03 04:47:53;;;;;;;17.13;4.05;;;;;;;5.43;57.08;100532.19;5055062;28;20064;-76
2021/04/03 04:50:19;;;;;;;14.95;4.57;;;;;;;5.41;58.16;100541.81;5054519;28;20029;-77
2021/04/03 04:52:44;;;;;;;12.55;3.92;;;;;;;5.37;58.69;100539.25;5056414;28;20049;-77
2021/04/03 04:55:10;;;;;;;11.70;4.47;;;;;;;5.34;58.83;100539.31;5056474;28;20166;-78
2021/04/03 04:57:36;;;;;;;13.50;4.68;;;;;;;5.27;59.44;100534.19;5054010;28;20056;-76
2021/04/03 05:00:02;;;;;;;20.52;4.25;;;;;;;5.26;59.76;100541.16;5070475;28;20111;-76
2021/04/03 05:02:27;;;;;;;14.98;5.50;;;;;;;5.29;59.85;100545.47;5054973;28;20040;-76
2021/04/03 05:04:53;;;;;;;14.13;3.92;;;;;;;5.31;60.02;100549.78;5073998;28;20033;-76
2021/04/03 05:07:18;;;;;;;12.45;4.07;;;;;;;5.37;59.85;100551.47;5058182;28;20424;-76
2021/04/03 05:09:44;;;;;;;16.55;5.30;;;;;;;5.41;59.34;100554.88;5055246;28;20120;-76
2021/04/03 05:12:09;;;;;;;16.25;4.97;;;;;;;5.40;58.24;100564.47;5056292;28;20090;-76
2021/04/03 05:14:35;;;;;;;18.58;4.97;;;;;;;5.35;58.67;100566.31;5043698;28;20037;-77
2021/04/03 05:17:00;;;;;;;17.92;6.07;;;;;;;5.27;58.82;100569.03;5046542;28;20044;-75
2021/04/03 05:19:26;;;;;;;13.45;4.88;;;;;;;5.28;59.69;100577.75;5032359;28;20081;-75
2021/04/03 05:21:52;;;;;;;23.85;5.53;;;;;;;5.30;59.33;100574.22;5058867;28;20043;-76
2021/04/03 05:24:18;;;;;;;13.23;3.92;;;;;;;5.35;59.62;100579.38;5055989;28;20121;-76
2021/04/03 05:26:43;;;;;;;18.30;4.63;;;;;;;5.37;59.15;100575.84;5073329;28;20607;-78
2021/04/03 05:29:09;;;;;;;13.25;4.00;;;;;;;5.33;59.47;100570.69;5076375;28;20062;-77
2021/04/03 05:31:34;;;;;;;23.35;5.18;;;;;;;5.40;59.52;100574.94;5074286;28;20174;-77
2021/04/03 05:34:00;;;;;;;12.32;4.97;;;;;;;5.48;58.83;100578.28;5076740;28;20040;-78
2021/04/03 05:36:25;;;;;;;17.70;4.97;;;;;;;5.45;58.82;100570.50;5077169;28;20040;-77
2021/04/03 05:38:51;;;;;;;9.50;5.30;;;;;;;5.49;58.86;100576.53;5076072;28;20103;-77
2021/04/03 05:41:16;;;;;;;12.65;4.72;;;;;;;5.50;58.78;100571.28;5072342;28;20035;-77
2021/04/03 05:43:46;;;;;;;20.15;5.13;;;;;;;5.50;59.08;100571.28;5074515;28;20039;-76
2021/04/03 05:46:11;;;;;;;16.08;4.93;;;;;;;5.53;59.01;100580.84;5074190;28;20063;-77
2021/04/03 05:48:38;;;;;;;12.95;4.18;;;;;;;5.52;59.53;100579.13;5062918;28;20030;-79
2021/04/03 05:51:04;;;;;;;25.33;4.80;;;;;;;5.56;58.88;100586.00;5038641;28;20021;-78
2021/04/03 05:53:29;;;;;;;21.92;5.65;;;;;;;5.57;58.67;100577.31;5033749;28;20095;-79
2021/04/03 05:55:59;;;;;;;15.35;4.82;;;;;;;5.54;59.22;100578.22;5033982;28;20029;-78
2021/04/03 05:58:25;;;;;;;21.92;5.32;;;;;;;5.51;59.25;100582.59;5031330;28;20029;-78
2021/04/03 06:00:55;;;;;;;16.17;4.38;;;;;;;5.51;59.86;100585.22;5012715;28;20087;-77
2021/04/03 06:03:21;;;;;;;20.20;4.18;;;;;;;5.64;59.03;100578.94;5014649;28;20589;-77
2021/04/03 06:05:53;;;;;;;15.95;4.47;;;;;;;5.60;58.77;100577.25;5016354;28;20038;-77
2021/04/03 06:08:19;;;;;;;17.50;4.13;;;;;;;5.54;59.21;100588.69;5014783;28;20063;-77
2021/04/03 06:11:11;;;;;;;13.23;4.65;;;;;;;5.62;59.00;100588.56;5016657;28;20114;-77
2021/04/03 06:13:36;;;;;;;14.50;4.22;;;;;;;5.64;59.06;100599.84;5012211;28;20050;-75
2021/04/03 06:16:23;;;;;;;13.73;3.88;;;;;;;5.58;59.50;100594.72;5012217;28;20045;-76
2021/04/03 06:18:48;;;;;;;11.98;4.18;;;;;;;5.66;59.26;100608.56;5011192;28;20125;-77
2021/04/03 06:21:14;;;;;;;15.05;4.40;;;;;;;5.69;58.91;100608.50;5011716;28;20097;-77
2021/04/03 06:23:39;;;;;;;18.88;4.93;;;;;;;5.71;58.86;100601.50;5012154;28;20037;-77
2021/04/03 06:26:04;;;;;;;19.33;5.05;;;;;;;5.66;58.83;100608.56;5011900;28;20030;-77
2021/04/03 06:28:32;;;;;;;18.98;5.18;;;;;;;5.71;58.63;100605.84;5011929;28;20049;-78
2021/04/03 06:30:59;;;;;;;15.35;4.15;;;;;;;5.74;58.54;100608.44;5015068;28;20034;-78
2021/04/03 06:33:25;;;;;;;22.05;4.65;;;;;;;5.82;58.15;100617.00;5015467;28;20125;-79
2021/04/03 06:36:13;;;;;;;13.48;5.43;;;;;;;5.93;58.34;100614.19;5020906;28;20061;-80
2021/04/03 06:38:40;;;;;;;25.92;6.57;;;;;;;5.96;58.03;100627.28;5023496;28;20026;-78
2021/04/03 06:41:39;;;;;;;15.40;5.82;;;;;;;5.93;57.92;100624.66;5023582;28;20493;-79
2021/04/03 06:44:12;;;;;;;21.13;4.88;;;;;;;5.95;57.85;100623.78;5021264;28;20105;-79
2021/04/03 06:46:42;;;;;;;20.90;5.38;;;;;;;5.98;58.01;100629.00;5000594;28;20440;-77
2021/04/03 06:49:08;;;;;;;22.58;5.65;;;;;;;5.97;57.85;100626.38;5013702;28;20034;-78
2021/04/03 06:51:34;;;;;;;21.20;5.30;;;;;;;5.96;57.71;100632.53;5021226;28;20092;-79
2021/04/03 06:54:01;;;;;;;16.58;6.68;;;;;;;5.99;57.57;100642.94;5033322;28;20041;-77
2021/04/03 06:56:30;;;;;;;19.00;5.18;;;;;;;6.05;57.27;100637.56;5051262;28;20041;-76
2021/04/03 06:59:12;;;;;;;14.90;4.72;;;;;;;6.02;57.37;100646.34;5056265;28;20078;-77
2021/04/03 07:01:54;;;;;;;19.92;5.55;;;;;;;6.11;57.58;100647.09;5050937;28;20087;-77
2021/04/03 07:04:39;;;;;;;16.95;5.88;;;;;;;6.15;57.45;100648.75;5068240;28;20033;-77
2021/04/03 07:07:06;;;;;;;16.30;5.30;;;;;;;6.12;57.70;100644.44;5045453;28;20029;-75
2021/04/03 07:09:33;;;;;;;20.15;4.85;;;;;;;6.07;58.46;100653.28;5032367;28;20042;-77
2021/04/03 07:11:59;;;;;;;19.75;5.95;;;;;;;6.07;58.29;100661.13;5031417;28;20029;-77
2021/04/03 07:14:25;;;;;;;23.85;5.68;;;;;;;6.02;58.45;100651.59;5030670;28;20207;-76
2021/04/03 07:16:51;;;;;;;22.77;5.53;;;;;;;6.01;59.17;100662.94;5030308;28;20121;-77
2021/04/03 07:19:18;;;;;;;22.45;6.18;;;;;;;6.08;58.95;100657.59;5029755;28;20034;-77
2021/04/03 07:21:44;;;;;;;30.95;8.23;;;;;;;6.23;58.87;100665.22;5030691;28;20488;-76
2021/04/03 07:24:12;;;;;;;16.60;5.53;;;;;;;6.28;58.80;100657.28;5035484;28;20057;-76
2021/04/03 07:26:42;;;;;;;20.38;6.82;;;;;;;6.21;59.21;100664.38;5035732;28;20030;-77
2021/04/03 07:29:07;;;;;;;23.67;6.30;;;;;;;6.26;58.99;100661.69;5027625;28;20033;-77
2021/04/03 07:31:40;;;;;;;24.92;7.13;;;;;;;6.37;59.20;100663.19;5028418;28;20034;-76
2021/04/03 07:34:07;;;;;;;19.27;6.53;;;;;;;6.45;59.18;100663.94;5030094;28;20106;-79
2021/04/03 07:36:36;;;;;;;18.45;5.68;;;;;;;6.54;58.79;100662.03;5029306;28;20037;-78
2021/04/03 07:39:04;;;;;;;33.83;7.18;;;;;;;6.55;59.05;100666.41;5028287;28;20520;-78
2021/04/03 07:41:38;;;;;;;20.92;6.25;;;;;;;6.46;58.87;100670.03;5013493;28;20060;-77
2021/04/03 07:44:14;;;;;;;18.48;5.93;;;;;;;6.23;59.92;100679.16;5030174;28;20053;-76
2021/04/03 07:46:42;;;;;;;16.60;5.57;;;;;;;6.32;59.61;100672.03;5029878;28;20038;-77
2021/04/03 07:49:08;;;;;;;21.65;5.90;;;;;;;6.27;59.56;100681.72;5029897;28;20061;-77
2021/04/03 07:51:34;;;;;;;24.08;6.75;;;;;;;6.25;59.56;100681.75;5047987;28;20033;-77
2021/04/03 07:54:01;;;;;;;27.00;7.30;;;;;;;6.35;59.50;100685.06;5049432;28;20402;-77
2021/04/03 07:56:49;;;;;;;26.65;7.60;;;;;;;6.49;58.81;100683.06;5050054;28;20117;-77
2021/04/03 07:59:15;;;;;;;41.38;7.97;;;;;;;6.78;58.52;100679.06;5050134;28;20068;-76
2021/04/03 08:01:41;;;;;;;24.70;7.20;;;;;;;7.09;57.67;100672.31;5050646;28;20033;-77
2021/04/03 08:04:09;;;;;;;32.10;7.18;;;;;;;7.38;55.54;100678.69;5049331;28;20033;-78
2021/04/03 08:06:37;;;;;;;19.60;5.53;;;;;;;7.81;54.87;100680.34;5049189;28;20040;-78
2021/04/03 08:09:20;;;;;;;34.38;7.57;;;;;;;7.63;54.43;100689.53;5060360;28;20040;-78
2021/04/03 08:11:47;;;;;;;24.48;5.50;;;;;;;7.98;53.05;100681.72;5042152;28;20041;-78
2021/04/03 08:14:14;;;;;;;22.90;7.00;;;;;;;7.95;53.52;100685.28;5037905;28;20632;-78
2021/04/03 08:16:41;;;;;;;20.38;5.28;;;;;;;7.79;53.97;100687.41;5032275;28;20038;-78
2021/04/03 08:19:07;;;;;;;33.20;8.32;;;;;;;7.72;53.48;100683.19;5034522;28;20036;-78
2021/04/03 08:21:50;;;;;;;26.38;8.25;;;;;;;7.54;53.15;100692.34;5022669;28;20030;-77
2021/04/03 08:24:19;;;;;;;30.02;6.90;;;;;;;7.41;54.00;100689.13;5022016;28;20037;-78
2021/04/03 08:26:46;;;;;;;20.17;6.45;;;;;;;7.59;52.49;100708.00;5019929;28;20041;-77
2021/04/03 08:29:24;;;;;;;26.10;6.65;;;;;;;7.52;51.92;100699.38;5015964;28;20038;-76
2021/04/03 08:31:51;;;;;;;20.70;7.55;;;;;;;7.67;51.20;100706.91;5016185;28;20034;-78
2021/04/03 08:34:17;;;;;;;26.48;9.60;;;;;;;7.65;50.53;100710.47;5019958;28;20512;-79
2021/04/03 08:36:42;;;;;;;35.40;9.85;;;;;;;7.74;49.68;100713.75;5019471;28;20041;-78
2021/04/03 08:39:10;;;;;;;33.67;11.98;;;;;;;7.60;48.66;100712.31;5034684;28;20041;-78
2021/04/03 08:41:39;;;;;;;29.15;11.32;;;;;;;7.58;48.60;100719.38;5018834;28;20405;-78
2021/04/03 08:44:19;;;;;;;20.73;9.27;;;;;;;7.72;48.58;100719.94;5019583;28;20040;-77
2021/04/03 08:46:46;;;;;;;21.17;9.57;;;;;;;7.92;49.43;100717.69;5019783;28;20076;-77
2021/04/03 08:49:11;;;;;;;20.75;10.50;;;;;;;8.23;48.74;100716.97;5020440;28;20042;-73
2021/04/03 08:51:37;;;;;;;30.38;11.27;;;;;;;9.08;46.79;100717.41;5026567;28;20117;-72
2021/04/03 08:54:04;;;;;;;15.18;9.90;;;;;;;10.29;44.69;100716.41;5033261;28;20087;-73
2021/04/03 08:56:35;;;;;;;24.45;11.25;;;;;;;10.93;42.86;100716.81;5033100;28;20041;-73
2021/04/03 08:59:06;;;;;;;28.45;10.07;;;;;;;10.11;46.14;100717.81;5031904;28;20037;-73
2021/04/03 09:01:34;;;;;;;28.95;9.20;;;;;;;9.61;47.73;100722.91;5031235;28;20046;-71
2021/04/03 09:04:06;;;;;;;18.73;7.93;;;;;;;9.37;48.75;100725.34;5032245;28;20072;-71
2021/04/03 09:06:47;;;;;;;26.55;9.05;;;;;;;9.35;49.15;100723.66;5032337;28;20063;-70
2021/04/03 09:09:20;;;;;;;25.90;8.85;;;;;;;8.96;52.12;100723.91;5030988;28;20041;-70
2021/04/03 09:11:56;;;;;;;41.28;10.32;;;;;;;8.98;50.98;100729.94;5021925;28;20583;-72
2021/04/03 09:14:24;;;;;;;35.70;10.75;;;;;;;8.87;50.43;100729.41;5029440;28;20073;-70
2021/04/03 09:16:49;;;;;;;19.73;6.97;;;;;;;8.85;51.28;100739.94;5017169;28;20026;-78
2021/04/03 09:19:23;;;;;;;30.38;9.40;;;;;;;8.81;51.10;100739.19;5039908;28;21136;-77
2021/04/03 09:21:48;;;;;;;25.20;6.40;;;;;;;9.18;50.62;100738.19;5038718;28;20164;-78
2021/04/03 09:24:40;;;;;;;22.90;7.88;;;;;;;10.53;47.19;100736.66;5052979;28;20843;-78
2021/04/03 09:27:20;;;;;;;20.17;7.13;;;;;;;12.05;43.54;100732.00;5065106;28;20047;-77
2021/04/03 09:29:55;;;;;;;13.90;5.78;;;;;;;12.55;40.06;100729.94;5051382;28;20037;-78
2021/04/03 09:32:21;;;;;;;15.97;6.37;;;;;;;11.76;42.36;100734.84;5057536;28;20114;-78
2021/04/03 09:35:03;;;;;;;21.95;6.90;;;;;;;11.17;43.72;100727.38;5040780;28;20045;-77
2021/04/03 09:37:30;;;;;;;23.33;8.52;;;;;;;12.98;40.52;100727.22;5034894;28;20036;-78
2021/04/03 09:39:57;;;;;;;22.20;8.40;;;;;;;13.45;39.39;100729.53;5034079;28;20407;-79
2021/04/03 09:42:28;;;;;;;23.35;6.22;;;;;;;13.07;40.07;100732.97;5060114;28;20021;-79
2021/04/03 09:44:54;;;;;;;18.25;5.95;;;;;;;12.08;41.69;100734.50;5030468;28;20029;-78
2021/04/03 09:47:21;;;;;;;20.65;6.45;;;;;;;12.71;40.21;100737.22;5050818;28;20029;-79
2021/04/03 09:49:49;;;;;;;18.58;6.05;;;;;;;12.33;41.19;100734.38;5055701;28;20048;-77
2021/04/03 09:52:15;;;;;;;20.77;6.65;;;;;;;11.65;42.16;100734.41;5042553;28;20037;-79
2021/04/03 09:54:45;;;;;;;14.00;6.25;;;;;;;12.90;40.08;100735.50;5037788;28;20033;-79
2021/04/03 09:57:12;;;;;;;16.42;5.95;;;;;;;12.85;40.54;100737.47;5027266;28;20038;-77
2021/04/03 09:59:40;;;;;;;18.27;6.38;;;;;;;12.29;41.09;100724.88;5033719;28;20033;-77
2021/04/03 10:02:06;;;;;;;30.15;7.70;;;;;;;12.03;41.62;100726.75;5024568;28;20050;-76
2021/04/03 10:04:31;;;;;;;17.05;6.32;;;;;;;11.59;42.77;100713.47;5019976;28;20412;-76
2021/04/03 10:06:57;;;;;;;21.23;6.47;;;;;;;11.29;43.19;100719.00;5037955;28;20033;-77
2021/04/03 10:09:23;;;;;;;20.27;7.00;;;;;;;10.63;43.93;100718.75;5038379;28;20128;-77
2021/04/03 10:11:55;;;;;;;21.98;7.05;;;;;;;10.79;44.52;100719.06;5041360;28;20452;-81
2021/04/03 10:14:22;;;;;;;28.35;8.65;;;;;;;10.76;44.55;100720.97;5048171;28;20392;-77
2021/04/03 10:16:48;;;;;;;16.10;6.07;;;;;;;11.92;41.98;100718.41;5046542;28;20048;-78
2021/04/03 10:19:15;;;;;;;19.63;6.60;;;;;;;11.33;42.82;100723.25;5042485;28;20056;-80
2021/04/03 10:21:40;;;;;;;17.02;6.15;;;;;;;11.09;43.20;100727.66;5028000;28;20072;-78
2021/04/03 10:24:07;;;;;;;26.08;6.30;;;;;;;12.99;39.48;100726.25;5020374;28;20049;-78
2021/04/03 10:26:32;;;;;;;17.58;7.35;;;;;;;12.81;40.02;100727.94;5028889;28;20056;-81
2021/04/03 10:28:58;;;;;;;20.65;6.97;;;;;;;12.26;40.75;100725.84;5009159;28;20046;-75
2021/04/03 10:31:23;;;;;;;17.33;7.35;;;;;;;11.38;42.18;100721.31;5010871;28;20504;-76
2021/04/03 10:33:52;;;;;;;16.75;6.38;;;;;;;11.77;41.88;100725.13;5038953;28;20040;-80
2021/04/03 10:36:17;;;;;;;14.57;6.50;;;;;;;13.36;38.58;100722.00;5024379;28;20037;-77
2021/04/03 10:38:47;;;;;;;22.38;6.25;;;;;;;13.18;38.70;100711.28;5026761;28;20662;-79
2021/04/03 10:41:16;;;;;;;26.10;8.30;;;;;;;13.90;36.80;100717.69;5000700;28;20047;-79
2021/04/03 10:43:41;;;;;;;19.42;7.25;;;;;;;12.82;38.73;100717.31;5018012;28;20408;-78
2021/04/03 10:46:13;;;;;;;18.25;7.18;;;;;;;12.09;39.64;100717.75;5029353;28;20033;-80
2021/04/03 10:48:38;;;;;;;18.77;6.85;;;;;;;11.97;40.69;100719.94;5026110;28;20055;-77
2021/04/03 10:51:05;;;;;;;19.20;8.48;;;;;;;12.58;39.67;100721.84;5027427;28;20848;-77
2021/04/03 10:53:31;;;;;;;15.88;6.78;;;;;;;13.01;39.15;100717.31;5025822;28;20049;-76
2021/04/03 10:55:57;;;;;;;16.60;7.30;;;;;;;12.53;39.35;100717.66;5026247;28;20040;-75
2021/04/03 10:58:22;;;;;;;16.65;7.07;;;;;;;12.21;40.52;100714.59;5016920;28;20040;-78
2021/04/03 11:00:48;;;;;;;19.77;6.43;;;;;;;11.81;40.33;100718.78;5036247;28;20056;-77
2021/04/03 11:03:13;;;;;;;26.65;8.23;;;;;;;11.59;41.23;100719.66;5031835;28;20061;-78
2021/04/03 11:05:39;;;;;;;17.80;7.05;;;;;;;11.72;40.98;100724.47;5017439;28;20172;-77
2021/04/03 11:08:04;;;;;;;19.48;6.40;;;;;;;11.70;40.34;100711.31;5020200;28;20523;-78
2021/04/03 11:10:30;;;;;;;18.02;7.55;;;;;;;11.92;40.41;100711.34;5024015;28;20506;-79
2021/04/03 11:12:56;;;;;;;14.25;5.93;;;;;;;11.61;41.40;100709.84;5020696;28;20046;-79
2021/04/03 11:15:22;;;;;;;14.77;6.43;;;;;;;11.68;41.89;100713.13;5011417;28;20092;-77
2021/04/03 11:17:47;;;;;;;17.08;6.68;;;;;;;12.01;40.37;100708.34;5015963;28;20054;-78
2021/04/03 11:20:13;;;;;;;17.10;7.35;;;;;;;12.12;40.46;100707.03;5037965;28;20450;-77
2021/04/03 11:22:40;;;;;;;15.70;6.57;;;;;;;11.90;41.84;100712.34;5044170;28;20044;-77
2021/04/03 11:25:06;;;;;;;12.57;6.22;;;;;;;11.61;42.92;100720.44;5044634;28;20140;-78
2021/04/03 11:27:32;;;;;;;14.82;6.60;;;;;;;11.54;42.58;100704.88;5033328;28;20597;-76
2021/04/03 11:29:57;;;;;;;19.17;6.28;;;;;;;11.66;42.57;100706.19;5033301;28;20033;-77